weather.gov     
National Weather Service

Terminal Aerodrome Forecast
NWS Homepage
This page is being discontinued on March 12, 2014.
The same data is available at this site. Please update your bookmarks.
Thank you, and we apologize for the inconvenience.
Please send an email to SR-SRH.Webmaster@noaa.gov with any concerns.


Current Version
Previous Version:    01  02  03  04  05  06  07  08  09  10  11  12  13  14  15  16  17  18  19  20  21  22  23  24  25  26  27  28  29  30  
   31  32  33  34  35  36  
[Printable]
673
FTUS43 KDLH 161100
TAFBRD
TAF
KBRD 161123Z 1612/1712 09007KT 1 1/2SM -SN OVC020
     FM161300 10010G17KT 3/4SM -SN BKN007 OVC015
     FM161500 08014G22KT 1/4SM +SN BLSN OVC006
     FM162200 05016G28KT 1 1/2SM -SN BLSN OVC006
     FM170300 03013G22KT 4SM -SN SCT007 OVC015=


U.S. Dept. of Commerce
NOAA National Weather Service
1325 East West Highway
Silver Spring, MD 20910
E-mail: w-nws.webmaster@noaa.gov
Page last modified: May 16, 2007
NATIONAL WEATHER SERVICE: for Safety, for Work, for Fun - FOR LIFE